sensor_id;sensor_type;location;lat;lon;timestamp;P1;P2;P0
28647;PMS5003;17137;51.494;-0.262;2023-05-07T00:00:14;1;1;
28647;PMS5003;17137;51.494;-0.262;2023-05-07T00:00:45;1;1;
28647;PMS5003;17137;51.494;-0.262;2023-05-07T00:01:15;1;1;
28647;PMS5003;17137;51.494;-0.262;2023-05-07T00:01:45;1;1;
28647;PMS5003;17137;51.494;-0.262;2023-05-07T00:02:16;1;1;
28647;PMS5003;17137;51.494;-0.262;2023-05-07T00:02:46;1;1;
28647;PMS5003;17137;51.494;-0.262;2023-05-07T00:03:16;2;0;
28647;PMS5003;17137;51.494;-0.262;2023-05-07T00:03:46;5;3;
28647;PMS5003;17137;51.494;-0.262;2023-05-07T00:04:17;5;3;
28647;PMS5003;17137;51.494;-0.262;2023-05-07T00:04:47;5;3;
28647;PMS5003;17137;51.494;-0.262;2023-05-07T00:05:17;5;3;
28647;PMS5003;17137;51.494;-0.262;2023-05-07T00:05:48;5;3;
28647;PMS5003;17137;51.494;-0.262;2023-05-07T00:06:19;3;3;
28647;PMS5003;17137;51.494;-0.262;2023-05-07T00:06:49;3;3;
28647;PMS5003;17137;51.494;-0.262;2023-05-07T00:07:19;3;3;
28647;PMS5003;17137;51.494;-0.262;2023-05-07T00:07:49;3;3;
28647;PMS5003;17137;51.494;-0.262;2023-05-07T00:08:20;3;3;
28647;PMS5003;17137;51.494;-0.262;2023-05-07T00:08:50;3;3;
28647;PMS5003;17137;51.494;-0.262;2023-05-07T00:09:20;3;3;
28647;PMS5003;17137;51.494;-0.262;2023-05-07T00:09:50;3;3;
28647;PMS5003;17137;51.494;-0.262;2023-05-07T00:10:20;3;3;
28647;PMS5003;17137;51.494;-0.262;2023-05-07T00:10:51;3;3;
28647;PMS5003;17137;51.494;-0.262;2023-05-07T00:11:21;3;3;
28647;PMS5003;17137;51.494;-0.262;2023-05-07T00:11:51;8;3;
28647;PMS5003;17137;51.494;-0.262;2023-05-07T00:12:22;7;2;
28647;PMS5003;17137;51.494;-0.262;2023-05-07T00:12:52;7;2;
28647;PMS5003;17137;51.494;-0.262;2023-05-07T00:13:22;6;2;
28647;PMS5003;17137;51.494;-0.262;2023-05-07T00:13:53;7;3;
28647;PMS5003;17137;51.494;-0.262;2023-05-07T00:14:23;7;3;
28647;PMS5003;17137;51.494;-0.262;2023-05-07T00:14:53;8;3;
28647;PMS5003;17137;51.494;-0.262;2023-05-07T00:15:24;8;3;
28647;PMS5003;17137;51.494;-0.262;2023-05-07T00:15:54;8;3;
28647;PMS5003;17137;51.494;-0.262;2023-05-07T00:16:24;6;4;
28647;PMS5003;17137;51.494;-0.262;2023-05-07T00:16:55;6;4;
28647;PMS5003;17137;51.494;-0.262;2023-05-07T00:17:25;5;3;
28647;PMS5003;17137;51.494;-0.262;2023-05-07T00:17:55;5;3;
28647;PMS5003;17137;51.494;-0.262;2023-05-07T00:18:25;5;3;
28647;PMS5003;17137;51.494;-0.262;2023-05-07T00:18:56;6;4;
28647;PMS5003;17137;51.494;-0.262;2023-05-07T00:19:26;5;4;
28647;PMS5003;17137;51.494;-0.262;2023-05-07T00:19:56;2;1;
28647;PMS5003;17137;51.494;-0.262;2023-05-07T00:20:27;2;1;
28647;PMS5003;17137;51.494;-0.262;2023-05-07T00:20:57;2;1;
28647;PMS5003;17137;51.494;-0.262;2023-05-07T00:21:27;3;2;
28647;PMS5003;17137;51.494;-0.262;2023-05-07T00:21:57;3;2;
28647;PMS5003;17137;51.494;-0.262;2023-05-07T00:22:28;3;2;
28647;PMS5003;17137;51.494;-0.262;2023-05-07T00:22:58;3;2;
28647;PMS5003;17137;51.494;-0.262;2023-05-07T00:23:28;3;2;
28647;PMS5003;17137;51.494;-0.262;2023-05-07T00:23:58;3;2;
28647;PMS5003;17137;51.494;-0.262;2023-05-07T00:24:28;3;2;
28647;PMS5003;17137;51.494;-0.262;2023-05-07T00:24:59;2;1;
28647;PMS5003;17137;51.494;-0.262;2023-05-07T00:25:29;3;2;
28647;PMS5003;17137;51.494;-0.262;2023-05-07T00:25:59;3;2;
28647;PMS5003;17137;51.494;-0.262;2023-05-07T00:26:29;3;2;
28647;PMS5003;17137;51.494;-0.262;2023-05-07T00:27:00;2;1;
28647;PMS5003;17137;51.494;-0.262;2023-05-07T00:27:59;3;1;
28647;PMS5003;17137;51.494;-0.262;2023-05-07T00:28:29;3;1;
28647;PMS5003;17137;51.494;-0.262;2023-05-07T00:28:59;3;1;
28647;PMS5003;17137;51.494;-0.262;2023-05-07T00:29:30;3;1;
28647;PMS5003;17137;51.494;-0.262;2023-05-07T00:30:00;3;1;
28647;PMS5003;17137;51.494;-0.262;2023-05-07T00:30:30;3;1;
28647;PMS5003;17137;51.494;-0.262;2023-05-07T00:31:01;3;1;
28647;PMS5003;17137;51.494;-0.262;2023-05-07T00:31:31;3;1;
28647;PMS5003;17137;51.494;-0.262;2023-05-07T00:32:02;3;1;
28647;PMS5003;17137;51.494;-0.262;2023-05-07T00:32:32;0;0;
28647;PMS5003;17137;51.494;-0.262;2023-05-07T00:33:02;0;0;
28647;PMS5003;17137;51.494;-0.262;2023-05-07T00:33:37;0;0;
28647;PMS5003;17137;51.494;-0.262;2023-05-07T00:34:08;0;0;
28647;PMS5003;17137;51.494;-0.262;2023-05-07T00:34:38;1;1;
28647;PMS5003;17137;51.494;-0.262;2023-05-07T00:35:08;1;1;
28647;PMS5003;17137;51.494;-0.262;2023-05-07T00:35:39;3;1;
28647;PMS5003;17137;51.494;-0.262;2023-05-07T00:36:09;3;1;
28647;PMS5003;17137;51.494;-0.262;2023-05-07T00:36:39;3;1;
28647;PMS5003;17137;51.494;-0.262;2023-05-07T00:37:09;3;1;
28647;PMS5003;17137;51.494;-0.262;2023-05-07T00:37:40;3;1;
28647;PMS5003;17137;51.494;-0.262;2023-05-07T00:38:10;3;1;
28647;PMS5003;17137;51.494;-0.262;2023-05-07T00:38:40;3;1;
28647;PMS5003;17137;51.494;-0.262;2023-05-07T00:39:10;3;1;
28647;PMS5003;17137;51.494;-0.262;2023-05-07T00:39:40;2;1;
28647;PMS5003;17137;51.494;-0.262;2023-05-07T00:40:11;2;1;
28647;PMS5003;17137;51.494;-0.262;2023-05-07T00:40:41;2;1;
28647;PMS5003;17137;51.494;-0.262;2023-05-07T00:41:12;3;1;
28647;PMS5003;17137;51.494;-0.262;2023-05-07T00:41:42;4;2;
28647;PMS5003;17137;51.494;-0.262;2023-05-07T00:42:12;4;2;
28647;PMS5003;17137;51.494;-0.262;2023-05-07T00:42:42;3;2;
28647;PMS5003;17137;51.494;-0.262;2023-05-07T00:43:13;3;2;
28647;PMS5003;17137;51.494;-0.262;2023-05-07T00:43:43;1;1;
28647;PMS5003;17137;51.494;-0.262;2023-05-07T00:44:14;1;1;
28647;PMS5003;17137;51.494;-0.262;2023-05-07T00:44:44;1;1;
28647;PMS5003;17137;51.494;-0.262;2023-05-07T00:45:14;2;2;
28647;PMS5003;17137;51.494;-0.262;2023-05-07T00:45:45;2;2;
28647;PMS5003;17137;51.494;-0.262;2023-05-07T00:46:16;2;2;
28647;PMS5003;17137;51.494;-0.262;2023-05-07T00:46:46;0;0;
28647;PMS5003;17137;51.494;-0.262;2023-05-07T00:47:16;0;0;
28647;PMS5003;17137;51.494;-0.262;2023-05-07T00:47:47;0;0;
28647;PMS5003;17137;51.494;-0.262;2023-05-07T00:48:17;0;0;
28647;PMS5003;17137;51.494;-0.262;2023-05-07T00:48:48;1;1;
28647;PMS5003;17137;51.494;-0.262;2023-05-07T00:49:20;1;1;
28647;PMS5003;17137;51.494;-0.262;2023-05-07T00:49:50;1;1;
28647;PMS5003;17137;51.494;-0.262;2023-05-07T00:50:21;1;1;
28647;PMS5003;17137;51.494;-0.262;2023-05-07T00:50:51;1;1;
28647;PMS5003;17137;51.494;-0.262;2023-05-07T00:51:22;1;1;
28647;PMS5003;17137;51.494;-0.262;2023-05-07T00:51:54;0;0;
28647;PMS5003;17137;51.494;-0.262;2023-05-07T00:52:25;0;0;
28647;PMS5003;17137;51.494;-0.262;2023-05-07T00:52:56;0;0;
28647;PMS5003;17137;51.494;-0.262;2023-05-07T00:53:26;0;0;
28647;PMS5003;17137;51.494;-0.262;2023-05-07T00:53:57;0;0;
28647;PMS5003;17137;51.494;-0.262;2023-05-07T00:54:27;0;0;
28647;PMS5003;17137;51.494;-0.262;2023-05-07T00:54:57;0;0;
28647;PMS5003;17137;51.494;-0.262;2023-05-07T00:55:30;0;0;
28647;PMS5003;17137;51.494;-0.262;2023-05-07T00:56:00;0;0;
28647;PMS5003;17137;51.494;-0.262;2023-05-07T00:56:31;0;0;
28647;PMS5003;17137;51.494;-0.262;2023-05-07T00:57:02;0;0;
28647;PMS5003;17137;51.494;-0.262;2023-05-07T00:57:33;0;0;
28647;PMS5003;17137;51.494;-0.262;2023-05-07T00:58:06;1;1;
28647;PMS5003;17137;51.494;-0.262;2023-05-07T00:58:37;1;1;
28647;PMS5003;17137;51.494;-0.262;2023-05-07T00:59:07;1;1;
28647;PMS5003;17137;51.494;-0.262;2023-05-07T00:59:38;1;1;
28647;PMS5003;17137;51.494;-0.262;2023-05-07T01:00:09;0;0;
28647;PMS5003;17137;51.494;-0.262;2023-05-07T01:00:40;0;0;
28647;PMS5003;17137;51.494;-0.262;2023-05-07T01:01:10;0;0;
28647;PMS5003;17137;51.494;-0.262;2023-05-07T01:01:40;1;0;
28647;PMS5003;17137;51.494;-0.262;2023-05-07T01:02:11;2;1;
28647;PMS5003;17137;51.494;-0.262;2023-05-07T01:02:41;2;1;
28647;PMS5003;17137;51.494;-0.262;2023-05-07T01:03:12;3;1;
28647;PMS5003;17137;51.494;-0.262;2023-05-07T01:03:42;3;1;
28647;PMS5003;17137;51.494;-0.262;2023-05-07T01:04:13;3;1;
28647;PMS5003;17137;51.494;-0.262;2023-05-07T01:04:43;3;1;
28647;PMS5003;17137;51.494;-0.262;2023-05-07T01:05:14;3;1;
28647;PMS5003;17137;51.494;-0.262;2023-05-07T01:05:47;2;0;
28647;PMS5003;17137;51.494;-0.262;2023-05-07T01:06:19;2;0;
28647;PMS5003;17137;51.494;-0.262;2023-05-07T01:06:51;2;0;
28647;PMS5003;17137;51.494;-0.262;2023-05-07T01:07:22;2;0;
28647;PMS5003;17137;51.494;-0.262;2023-05-07T01:07:53;1;0;
28647;PMS5003;17137;51.494;-0.262;2023-05-07T01:08:24;3;2;
28647;PMS5003;17137;51.494;-0.262;2023-05-07T01:08:55;3;2;
28647;PMS5003;17137;51.494;-0.262;2023-05-07T01:09:26;3;2;
28647;PMS5003;17137;51.494;-0.262;2023-05-07T01:09:57;2;1;
28647;PMS5003;17137;51.494;-0.262;2023-05-07T01:10:28;2;1;
28647;PMS5003;17137;51.494;-0.262;2023-05-07T01:10:58;2;1;
28647;PMS5003;17137;51.494;-0.262;2023-05-07T01:11:29;1;0;
28647;PMS5003;17137;51.494;-0.262;2023-05-07T01:12:00;2;1;
28647;PMS5003;17137;51.494;-0.262;2023-05-07T01:12:31;2;1;
28647;PMS5003;17137;51.494;-0.262;2023-05-07T01:13:02;4;1;
28647;PMS5003;17137;51.494;-0.262;2023-05-07T01:13:33;4;1;
28647;PMS5003;17137;51.494;-0.262;2023-05-07T01:14:04;4;1;
28647;PMS5003;17137;51.494;-0.262;2023-05-07T01:14:36;3;1;
28647;PMS5003;17137;51.494;-0.262;2023-05-07T01:15:07;3;1;
28647;PMS5003;17137;51.494;-0.262;2023-05-07T01:15:38;3;1;
28647;PMS5003;17137;51.494;-0.262;2023-05-07T01:16:38;7;2;
28647;PMS5003;17137;51.494;-0.262;2023-05-07T01:17:09;7;2;
28647;PMS5003;17137;51.494;-0.262;2023-05-07T01:17:39;7;2;
28647;PMS5003;17137;51.494;-0.262;2023-05-07T01:18:11;7;2;
28647;PMS5003;17137;51.494;-0.262;2023-05-07T01:18:41;7;2;
28647;PMS5003;17137;51.494;-0.262;2023-05-07T01:19:12;7;2;
28647;PMS5003;17137;51.494;-0.262;2023-05-07T01:19:44;7;2;
28647;PMS5003;17137;51.494;-0.262;2023-05-07T01:20:14;7;2;
28647;PMS5003;17137;51.494;-0.262;2023-05-07T01:20:45;7;2;
28647;PMS5003;17137;51.494;-0.262;2023-05-07T01:21:15;7;2;
28647;PMS5003;17137;51.494;-0.262;2023-05-07T01:21:47;7;2;
28647;PMS5003;17137;51.494;-0.262;2023-05-07T01:22:23;5;1;
28647;PMS5003;17137;51.494;-0.262;2023-05-07T01:22:59;5;1;
28647;PMS5003;17137;51.494;-0.262;2023-05-07T01:23:30;5;1;
28647;PMS5003;17137;51.494;-0.262;2023-05-07T01:24:02;6;2;
28647;PMS5003;17137;51.494;-0.262;2023-05-07T01:24:33;6;2;
28647;PMS5003;17137;51.494;-0.262;2023-05-07T01:25:06;2;2;
28647;PMS5003;17137;51.494;-0.262;2023-05-07T01:25:37;2;2;
28647;PMS5003;17137;51.494;-0.262;2023-05-07T01:26:07;2;2;
28647;PMS5003;17137;51.494;-0.262;2023-05-07T01:26:38;2;2;
28647;PMS5003;17137;51.494;-0.262;2023-05-07T01:27:08;1;1;
28647;PMS5003;17137;51.494;-0.262;2023-05-07T01:27:38;0;0;
28647;PMS5003;17137;51.494;-0.262;2023-05-07T01:28:09;0;0;
28647;PMS5003;17137;51.494;-0.262;2023-05-07T01:28:39;1;1;
28647;PMS5003;17137;51.494;-0.262;2023-05-07T01:29:09;1;1;
28647;PMS5003;17137;51.494;-0.262;2023-05-07T01:29:40;1;1;
28647;PMS5003;17137;51.494;-0.262;2023-05-07T01:30:11;1;1;
28647;PMS5003;17137;51.494;-0.262;2023-05-07T01:30:42;1;1;
28647;PMS5003;17137;51.494;-0.262;2023-05-07T01:31:17;1;1;
28647;PMS5003;17137;51.494;-0.262;2023-05-07T01:31:48;1;1;
28647;PMS5003;17137;51.494;-0.262;2023-05-07T01:32:22;1;1;
28647;PMS5003;17137;51.494;-0.262;2023-05-07T01:32:59;1;1;
28647;PMS5003;17137;51.494;-0.262;2023-05-07T01:33:34;5;2;
28647;PMS5003;17137;51.494;-0.262;2023-05-07T01:34:07;5;2;
28647;PMS5003;17137;51.494;-0.262;2023-05-07T01:34:39;4;2;
28647;PMS5003;17137;51.494;-0.262;2023-05-07T01:35:11;4;2;
28647;PMS5003;17137;51.494;-0.262;2023-05-07T01:35:46;4;2;
28647;PMS5003;17137;51.494;-0.262;2023-05-07T01:36:19;4;1;
28647;PMS5003;17137;51.494;-0.262;2023-05-07T01:36:52;4;1;
28647;PMS5003;17137;51.494;-0.262;2023-05-07T01:37:23;4;1;
28647;PMS5003;17137;51.494;-0.262;2023-05-07T01:37:55;4;2;
28647;PMS5003;17137;51.494;-0.262;2023-05-07T01:38:26;4;2;
28647;PMS5003;17137;51.494;-0.262;2023-05-07T01:38:57;4;2;
28647;PMS5003;17137;51.494;-0.262;2023-05-07T01:39:29;4;2;
28647;PMS5003;17137;51.494;-0.262;2023-05-07T01:40:00;4;2;
28647;PMS5003;17137;51.494;-0.262;2023-05-07T01:40:31;4;2;
28647;PMS5003;17137;51.494;-0.262;2023-05-07T01:41:03;2;2;
28647;PMS5003;17137;51.494;-0.262;2023-05-07T01:41:33;2;2;
28647;PMS5003;17137;51.494;-0.262;2023-05-07T01:42:04;3;1;
28647;PMS5003;17137;51.494;-0.262;2023-05-07T01:42:35;3;1;
28647;PMS5003;17137;51.494;-0.262;2023-05-07T01:43:06;3;1;
28647;PMS5003;17137;51.494;-0.262;2023-05-07T01:43:37;3;1;
28647;PMS5003;17137;51.494;-0.262;2023-05-07T01:44:10;3;1;
28647;PMS5003;17137;51.494;-0.262;2023-05-07T01:44:42;3;1;
28647;PMS5003;17137;51.494;-0.262;2023-05-07T01:45:13;3;1;
28647;PMS5003;17137;51.494;-0.262;2023-05-07T01:45:44;3;1;
28647;PMS5003;17137;51.494;-0.262;2023-05-07T01:46:15;3;1;
28647;PMS5003;17137;51.494;-0.262;2023-05-07T01:46:52;3;1;
28647;PMS5003;17137;51.494;-0.262;2023-05-07T01:47:23;3;1;
28647;PMS5003;17137;51.494;-0.262;2023-05-07T01:47:54;3;1;
28647;PMS5003;17137;51.494;-0.262;2023-05-07T01:48:25;3;1;
28647;PMS5003;17137;51.494;-0.262;2023-05-07T01:48:56;3;1;
28647;PMS5003;17137;51.494;-0.262;2023-05-07T01:49:27;3;1;
28647;PMS5003;17137;51.494;-0.262;2023-05-07T01:49:57;3;1;
28647;PMS5003;17137;51.494;-0.262;2023-05-07T01:50:28;2;2;
28647;PMS5003;17137;51.494;-0.262;2023-05-07T01:50:59;2;2;
28647;PMS5003;17137;51.494;-0.262;2023-05-07T01:51:30;2;2;
28647;PMS5003;17137;51.494;-0.262;2023-05-07T01:52:02;2;2;
28647;PMS5003;17137;51.494;-0.262;2023-05-07T01:52:33;2;2;
28647;PMS5003;17137;51.494;-0.262;2023-05-07T01:53:06;2;2;
28647;PMS5003;17137;51.494;-0.262;2023-05-07T01:53:36;2;2;
28647;PMS5003;17137;51.494;-0.262;2023-05-07T01:54:07;1;1;
28647;PMS5003;17137;51.494;-0.262;2023-05-07T01:54:37;1;1;
28647;PMS5003;17137;51.494;-0.262;2023-05-07T01:55:08;1;1;
28647;PMS5003;17137;51.494;-0.262;2023-05-07T01:55:39;1;1;
28647;PMS5003;17137;51.494;-0.262;2023-05-07T01:56:09;2;2;
28647;PMS5003;17137;51.494;-0.262;2023-05-07T01:56:39;2;2;
28647;PMS5003;17137;51.494;-0.262;2023-05-07T01:57:10;2;2;
28647;PMS5003;17137;51.494;-0.262;2023-05-07T01:57:40;2;2;
28647;PMS5003;17137;51.494;-0.262;2023-05-07T01:58:10;2;2;
28647;PMS5003;17137;51.494;-0.262;2023-05-07T01:58:41;2;2;
28647;PMS5003;17137;51.494;-0.262;2023-05-07T01:59:11;2;2;
28647;PMS5003;17137;51.494;-0.262;2023-05-07T01:59:42;2;2;
28647;PMS5003;17137;51.494;-0.262;2023-05-07T02:00:12;2;2;
28647;PMS5003;17137;51.494;-0.262;2023-05-07T02:00:43;2;2;
28647;PMS5003;17137;51.494;-0.262;2023-05-07T02:01:14;2;2;
28647;PMS5003;17137;51.494;-0.262;2023-05-07T02:01:44;2;2;
28647;PMS5003;17137;51.494;-0.262;2023-05-07T02:02:14;2;2;
28647;PMS5003;17137;51.494;-0.262;2023-05-07T02:02:45;2;2;
28647;PMS5003;17137;51.494;-0.262;2023-05-07T02:03:15;2;2;
28647;PMS5003;17137;51.494;-0.262;2023-05-07T02:03:45;2;2;
28647;PMS5003;17137;51.494;-0.262;2023-05-07T02:04:21;2;2;
28647;PMS5003;17137;51.494;-0.262;2023-05-07T02:04:51;2;2;
28647;PMS5003;17137;51.494;-0.262;2023-05-07T02:05:21;1;1;
28647;PMS5003;17137;51.494;-0.262;2023-05-07T02:05:52;1;1;
28647;PMS5003;17137;51.494;-0.262;2023-05-07T02:06:22;0;0;
28647;PMS5003;17137;51.494;-0.262;2023-05-07T02:06:53;3;2;
28647;PMS5003;17137;51.494;-0.262;2023-05-07T02:07:23;3;2;
28647;PMS5003;17137;51.494;-0.262;2023-05-07T02:07:53;3;2;
28647;PMS5003;17137;51.494;-0.262;2023-05-07T02:08:23;3;2;
28647;PMS5003;17137;51.494;-0.262;2023-05-07T02:08:54;3;2;
28647;PMS5003;17137;51.494;-0.262;2023-05-07T02:09:24;3;2;
28647;PMS5003;17137;51.494;-0.262;2023-05-07T02:09:55;3;2;
28647;PMS5003;17137;51.494;-0.262;2023-05-07T02:10:25;3;2;
28647;PMS5003;17137;51.494;-0.262;2023-05-07T02:10:56;3;2;
28647;PMS5003;17137;51.494;-0.262;2023-05-07T02:11:26;3;2;
28647;PMS5003;17137;51.494;-0.262;2023-05-07T02:11:56;3;2;
28647;PMS5003;17137;51.494;-0.262;2023-05-07T02:12:27;3;2;
28647;PMS5003;17137;51.494;-0.262;2023-05-07T02:12:57;3;2;
28647;PMS5003;17137;51.494;-0.262;2023-05-07T02:13:28;3;2;
28647;PMS5003;17137;51.494;-0.262;2023-05-07T02:13:59;3;2;
28647;PMS5003;17137;51.494;-0.262;2023-05-07T02:14:30;3;2;
28647;PMS5003;17137;51.494;-0.262;2023-05-07T02:15:00;2;2;
28647;PMS5003;17137;51.494;-0.262;2023-05-07T02:15:30;2;2;
28647;PMS5003;17137;51.494;-0.262;2023-05-07T02:16:01;2;2;
28647;PMS5003;17137;51.494;-0.262;2023-05-07T02:16:31;2;2;
28647;PMS5003;17137;51.494;-0.262;2023-05-07T02:17:01;2;2;
28647;PMS5003;17137;51.494;-0.262;2023-05-07T02:17:32;2;2;
28647;PMS5003;17137;51.494;-0.262;2023-05-07T02:18:03;2;2;
28647;PMS5003;17137;51.494;-0.262;2023-05-07T02:18:34;2;2;
28647;PMS5003;17137;51.494;-0.262;2023-05-07T02:19:04;2;2;
28647;PMS5003;17137;51.494;-0.262;2023-05-07T02:19:35;2;2;
28647;PMS5003;17137;51.494;-0.262;2023-05-07T02:20:06;2;2;
28647;PMS5003;17137;51.494;-0.262;2023-05-07T02:20:37;3;3;
28647;PMS5003;17137;51.494;-0.262;2023-05-07T02:21:08;3;3;
28647;PMS5003;17137;51.494;-0.262;2023-05-07T02:21:38;3;3;
28647;PMS5003;17137;51.494;-0.262;2023-05-07T02:22:09;3;3;
28647;PMS5003;17137;51.494;-0.262;2023-05-07T02:22:39;3;3;
28647;PMS5003;17137;51.494;-0.262;2023-05-07T02:23:10;3;3;
28647;PMS5003;17137;51.494;-0.262;2023-05-07T02:23:40;3;3;
28647;PMS5003;17137;51.494;-0.262;2023-05-07T02:24:10;3;3;
28647;PMS5003;17137;51.494;-0.262;2023-05-07T02:24:40;3;3;
28647;PMS5003;17137;51.494;-0.262;2023-05-07T02:25:11;2;2;
28647;PMS5003;17137;51.494;-0.262;2023-05-07T02:25:41;2;2;
28647;PMS5003;17137;51.494;-0.262;2023-05-07T02:26:11;2;2;
28647;PMS5003;17137;51.494;-0.262;2023-05-07T02:26:42;3;3;
28647;PMS5003;17137;51.494;-0.262;2023-05-07T02:27:12;3;3;
28647;PMS5003;17137;51.494;-0.262;2023-05-07T02:27:43;3;3;
28647;PMS5003;17137;51.494;-0.262;2023-05-07T02:28:13;3;3;
28647;PMS5003;17137;51.494;-0.262;2023-05-07T02:28:44;3;3;
28647;PMS5003;17137;51.494;-0.262;2023-05-07T02:29:14;3;3;
28647;PMS5003;17137;51.494;-0.262;2023-05-07T02:29:45;3;3;
28647;PMS5003;17137;51.494;-0.262;2023-05-07T02:30:16;3;3;
28647;PMS5003;17137;51.494;-0.262;2023-05-07T02:30:46;3;3;
28647;PMS5003;17137;51.494;-0.262;2023-05-07T02:31:17;2;2;
28647;PMS5003;17137;51.494;-0.262;2023-05-07T02:31:47;2;2;
28647;PMS5003;17137;51.494;-0.262;2023-05-07T02:32:17;2;2;
28647;PMS5003;17137;51.494;-0.262;2023-05-07T02:32:48;2;2;
28647;PMS5003;17137;51.494;-0.262;2023-05-07T02:33:18;2;2;
28647;PMS5003;17137;51.494;-0.262;2023-05-07T02:33:48;2;2;
28647;PMS5003;17137;51.494;-0.262;2023-05-07T02:34:18;2;2;
28647;PMS5003;17137;51.494;-0.262;2023-05-07T02:34:50;2;2;
28647;PMS5003;17137;51.494;-0.262;2023-05-07T02:35:20;2;2;
28647;PMS5003;17137;51.494;-0.262;2023-05-07T02:35:50;2;2;
28647;PMS5003;17137;51.494;-0.262;2023-05-07T02:36:20;2;2;
28647;PMS5003;17137;51.494;-0.262;2023-05-07T02:36:51;2;2;
28647;PMS5003;17137;51.494;-0.262;2023-05-07T02:37:21;2;2;
28647;PMS5003;17137;51.494;-0.262;2023-05-07T02:37:51;2;2;
28647;PMS5003;17137;51.494;-0.262;2023-05-07T02:38:22;2;2;
28647;PMS5003;17137;51.494;-0.262;2023-05-07T02:38:52;2;2;
28647;PMS5003;17137;51.494;-0.262;2023-05-07T02:39:23;3;2;
28647;PMS5003;17137;51.494;-0.262;2023-05-07T02:39:53;2;2;
28647;PMS5003;17137;51.494;-0.262;2023-05-07T02:40:23;2;2;
28647;PMS5003;17137;51.494;-0.262;2023-05-07T02:40:54;2;2;
28647;PMS5003;17137;51.494;-0.262;2023-05-07T02:41:24;2;2;
28647;PMS5003;17137;51.494;-0.262;2023-05-07T02:41:54;2;2;
28647;PMS5003;17137;51.494;-0.262;2023-05-07T02:42:24;2;2;
28647;PMS5003;17137;51.494;-0.262;2023-05-07T02:42:55;2;2;
28647;PMS5003;17137;51.494;-0.262;2023-05-07T02:43:25;2;2;
28647;PMS5003;17137;51.494;-0.262;2023-05-07T02:43:56;2;2;
28647;PMS5003;17137;51.494;-0.262;2023-05-07T02:44:26;2;2;
28647;PMS5003;17137;51.494;-0.262;2023-05-07T02:44:56;2;2;
28647;PMS5003;17137;51.494;-0.262;2023-05-07T02:45:26;2;2;
28647;PMS5003;17137;51.494;-0.262;2023-05-07T02:46:00;2;2;
28647;PMS5003;17137;51.494;-0.262;2023-05-07T02:46:31;2;2;
28647;PMS5003;17137;51.494;-0.262;2023-05-07T02:47:01;2;2;
28647;PMS5003;17137;51.494;-0.262;2023-05-07T02:47:31;4;2;
28647;PMS5003;17137;51.494;-0.262;2023-05-07T02:48:01;4;2;
28647;PMS5003;17137;51.494;-0.262;2023-05-07T02:48:32;3;2;
28647;PMS5003;17137;51.494;-0.262;2023-05-07T02:49:03;4;3;
28647;PMS5003;17137;51.494;-0.262;2023-05-07T02:49:33;4;3;
28647;PMS5003;17137;51.494;-0.262;2023-05-07T02:50:04;4;3;
28647;PMS5003;17137;51.494;-0.262;2023-05-07T02:50:35;4;3;
28647;PMS5003;17137;51.494;-0.262;2023-05-07T02:51:05;4;3;
28647;PMS5003;17137;51.494;-0.262;2023-05-07T02:51:36;4;3;
28647;PMS5003;17137;51.494;-0.262;2023-05-07T02:52:07;4;3;
28647;PMS5003;17137;51.494;-0.262;2023-05-07T02:52:37;4;3;
28647;PMS5003;17137;51.494;-0.262;2023-05-07T02:53:07;5;3;
28647;PMS5003;17137;51.494;-0.262;2023-05-07T02:53:37;5;3;
28647;PMS5003;17137;51.494;-0.262;2023-05-07T02:54:08;5;3;
28647;PMS5003;17137;51.494;-0.262;2023-05-07T02:54:38;4;2;
28647;PMS5003;17137;51.494;-0.262;2023-05-07T02:55:08;4;2;
28647;PMS5003;17137;51.494;-0.262;2023-05-07T02:55:39;3;3;
28647;PMS5003;17137;51.494;-0.262;2023-05-07T02:56:09;3;3;
28647;PMS5003;17137;51.494;-0.262;2023-05-07T02:56:39;3;3;
28647;PMS5003;17137;51.494;-0.262;2023-05-07T02:57:09;3;3;
28647;PMS5003;17137;51.494;-0.262;2023-05-07T02:57:39;3;3;
28647;PMS5003;17137;51.494;-0.262;2023-05-07T02:58:10;3;3;
28647;PMS5003;17137;51.494;-0.262;2023-05-07T02:58:40;3;3;
28647;PMS5003;17137;51.494;-0.262;2023-05-07T02:59:10;3;3;
28647;PMS5003;17137;51.494;-0.262;2023-05-07T02:59:41;4;3;
28647;PMS5003;17137;51.494;-0.262;2023-05-07T03:00:12;4;3;
28647;PMS5003;17137;51.494;-0.262;2023-05-07T03:00:44;4;3;
28647;PMS5003;17137;51.494;-0.262;2023-05-07T03:01:14;4;3;
28647;PMS5003;17137;51.494;-0.262;2023-05-07T03:01:44;4;3;
28647;PMS5003;17137;51.494;-0.262;2023-05-07T03:02:14;4;3;
28647;PMS5003;17137;51.494;-0.262;2023-05-07T03:02:45;4;3;
28647;PMS5003;17137;51.494;-0.262;2023-05-07T03:03:15;4;3;
28647;PMS5003;17137;51.494;-0.262;2023-05-07T03:03:45;6;4;
28647;PMS5003;17137;51.494;-0.262;2023-05-07T03:04:16;5;4;
28647;PMS5003;17137;51.494;-0.262;2023-05-07T03:04:46;5;4;
28647;PMS5003;17137;51.494;-0.262;2023-05-07T03:05:16;5;4;
28647;PMS5003;17137;51.494;-0.262;2023-05-07T03:05:47;4;4;
28647;PMS5003;17137;51.494;-0.262;2023-05-07T03:06:17;4;4;
28647;PMS5003;17137;51.494;-0.262;2023-05-07T03:06:47;4;4;
28647;PMS5003;17137;51.494;-0.262;2023-05-07T03:07:17;3;3;
28647;PMS5003;17137;51.494;-0.262;2023-05-07T03:07:48;3;3;
28647;PMS5003;17137;51.494;-0.262;2023-05-07T03:08:18;3;3;
28647;PMS5003;17137;51.494;-0.262;2023-05-07T03:08:48;3;3;
28647;PMS5003;17137;51.494;-0.262;2023-05-07T03:09:18;3;3;
28647;PMS5003;17137;51.494;-0.262;2023-05-07T03:09:48;3;3;
28647;PMS5003;17137;51.494;-0.262;2023-05-07T03:10:19;3;3;
28647;PMS5003;17137;51.494;-0.262;2023-05-07T03:10:49;3;3;
28647;PMS5003;17137;51.494;-0.262;2023-05-07T03:11:19;3;3;
28647;PMS5003;17137;51.494;-0.262;2023-05-07T03:11:50;2;2;
28647;PMS5003;17137;51.494;-0.262;2023-05-07T03:12:20;3;2;
28647;PMS5003;17137;51.494;-0.262;2023-05-07T03:12:51;3;2;
28647;PMS5003;17137;51.494;-0.262;2023-05-07T03:13:21;3;2;
28647;PMS5003;17137;51.494;-0.262;2023-05-07T03:13:51;3;2;
28647;PMS5003;17137;51.494;-0.262;2023-05-07T03:14:21;3;2;
28647;PMS5003;17137;51.494;-0.262;2023-05-07T03:14:51;3;2;
28647;PMS5003;17137;51.494;-0.262;2023-05-07T03:15:22;3;2;
28647;PMS5003;17137;51.494;-0.262;2023-05-07T03:15:52;3;2;
28647;PMS5003;17137;51.494;-0.262;2023-05-07T03:16:22;3;2;
28647;PMS5003;17137;51.494;-0.262;2023-05-07T03:16:52;2;2;
28647;PMS5003;17137;51.494;-0.262;2023-05-07T03:17:23;2;2;
28647;PMS5003;17137;51.494;-0.262;2023-05-07T03:17:53;2;2;
28647;PMS5003;17137;51.494;-0.262;2023-05-07T03:18:23;3;1;
28647;PMS5003;17137;51.494;-0.262;2023-05-07T03:18:53;3;1;
28647;PMS5003;17137;51.494;-0.262;2023-05-07T03:19:24;3;1;
28647;PMS5003;17137;51.494;-0.262;2023-05-07T03:19:54;3;3;
28647;PMS5003;17137;51.494;-0.262;2023-05-07T03:20:24;2;2;
28647;PMS5003;17137;51.494;-0.262;2023-05-07T03:20:54;2;2;
28647;PMS5003;17137;51.494;-0.262;2023-05-07T03:21:24;2;2;
28647;PMS5003;17137;51.494;-0.262;2023-05-07T03:21:55;2;2;
28647;PMS5003;17137;51.494;-0.262;2023-05-07T03:22:25;2;2;
28647;PMS5003;17137;51.494;-0.262;2023-05-07T03:22:55;2;2;
28647;PMS5003;17137;51.494;-0.262;2023-05-07T03:23:26;2;2;
28647;PMS5003;17137;51.494;-0.262;2023-05-07T03:23:56;2;2;
28647;PMS5003;17137;51.494;-0.262;2023-05-07T03:24:26;2;2;
28647;PMS5003;17137;51.494;-0.262;2023-05-07T03:24:56;2;2;
28647;PMS5003;17137;51.494;-0.262;2023-05-07T03:25:27;1;1;
28647;PMS5003;17137;51.494;-0.262;2023-05-07T03:25:57;1;1;
28647;PMS5003;17137;51.494;-0.262;2023-05-07T03:26:27;1;1;
28647;PMS5003;17137;51.494;-0.262;2023-05-07T03:26:57;1;1;
28647;PMS5003;17137;51.494;-0.262;2023-05-07T03:27:28;2;2;
28647;PMS5003;17137;51.494;-0.262;2023-05-07T03:27:58;3;3;